Time;durP1;ratioP1;P1;durP2;ratioP2;P2;SDS_P1;SDS_P2;PMS_P1;PMS_P2;Temp;Humidity;BMP_temperature;BMP_pressure;BME280_temperature;BME280_humidity;BME280_pressure;Samples;Min_cycle;Max_cycle;Signal;HPM_P1;HPM_P2
2023/09/11 00:01:27;;;;;;;50.57;40.17;;;;;;;;;;5027472;28;20571;-81
2023/09/11 00:03:54;;;;;;;49.50;40.13;;;;;;;;;;5046833;28;20494;-82
2023/09/11 00:06:20;;;;;;;52.43;39.47;;;;;;;;;;5051903;28;20476;-82
2023/09/11 00:08:46;;;;;;;53.50;39.23;;;;;;;;;;5038089;28;20486;-81
2023/09/11 00:11:13;;;;;;;49.20;39.10;;;;;;;;;;5038832;28;20468;-81
2023/09/11 00:13:41;;;;;;;46.43;38.90;;;;;;;;;;5058169;28;20965;-81
2023/09/11 00:16:07;;;;;;;53.03;42.00;;;;;;;;;;5025037;28;20465;-81
2023/09/11 00:18:34;;;;;;;57.30;42.37;;;;;;;;;;5053942;28;20542;-82
2023/09/11 00:21:00;;;;;;;53.37;42.90;;;;;;;;;;5045557;28;20469;-81
2023/09/11 00:23:27;;;;;;;58.80;47.37;;;;;;;;;;5044764;28;20499;-81
2023/09/11 00:25:53;;;;;;;60.13;43.80;;;;;;;;;;5032285;28;21066;-81
2023/09/11 00:28:20;;;;;;;51.47;42.20;;;;;;;;;;5045032;28;20475;-81
2023/09/11 00:30:48;;;;;;;47.10;36.80;;;;;;;;;;5054686;28;20468;-82
2023/09/11 00:33:16;;;;;;;49.57;39.10;;;;;;;;;;5035851;28;20569;-82
2023/09/11 00:35:44;;;;;;;59.73;46.97;;;;;;;;;;5038201;28;20498;-82
2023/09/11 00:38:10;;;;;;;60.63;45.37;;;;;;;;;;5041974;28;20482;-81
2023/09/11 00:40:36;;;;;;;54.37;41.87;;;;;;;;;;5047558;28;20456;-81
2023/09/11 00:43:03;;;;;;;60.77;48.20;;;;;;;;;;5040551;28;20473;-81
2023/09/11 00:45:29;;;;;;;63.47;49.20;;;;;;;;;;5018848;28;20508;-81
2023/09/11 00:47:59;;;;;;;60.33;46.97;;;;;;;;;;5035621;28;20458;-81
2023/09/11 00:50:25;;;;;;;59.40;46.00;;;;;;;;;;5033418;28;20979;-81
2023/09/11 00:52:52;;;;;;;63.63;45.37;;;;;;;;;;5040453;28;20502;-81
2023/09/11 00:55:20;;;;;;;60.50;45.33;;;;;;;;;;5057403;28;20493;-81
2023/09/11 00:57:46;;;;;;;58.87;45.70;;;;;;;;;;5038225;28;20506;-81
2023/09/11 01:00:14;;;;;;;62.07;47.63;;;;;;;;;;5036343;28;20471;-80
2023/09/11 01:02:40;;;;;;;62.40;46.97;;;;;;;;;;5041206;28;20511;-81
2023/09/11 01:05:09;;;;;;;61.47;48.10;;;;;;;;;;5036544;28;20475;-81
2023/09/11 01:07:35;;;;;;;61.20;50.50;;;;;;;;;;5040761;28;20491;-81
2023/09/11 01:10:05;;;;;;;61.63;46.90;;;;;;;;;;5042984;28;20463;-81
2023/09/11 01:12:32;;;;;;;63.30;47.70;;;;;;;;;;5033958;28;20467;-81
2023/09/11 01:14:58;;;;;;;71.07;48.80;;;;;;;;;;5036316;28;20472;-81
2023/09/11 01:17:30;;;;;;;56.80;45.97;;;;;;;;;;5010765;28;20459;-81
2023/09/11 01:20:15;;;;;;;60.40;48.20;;;;;;;;;;5032447;28;20469;-81
2023/09/11 01:22:50;;;;;;;55.13;46.37;;;;;;;;;;5041955;28;21041;-80
2023/09/11 01:25:26;;;;;;;52.83;43.07;;;;;;;;;;5044813;28;20471;-81
2023/09/11 01:28:13;;;;;;;50.83;42.17;;;;;;;;;;5033684;28;20498;-81
2023/09/11 01:30:43;;;;;;;52.13;40.23;;;;;;;;;;5024754;28;20469;-81
2023/09/11 01:33:09;;;;;;;48.70;40.47;;;;;;;;;;5046102;28;20841;-81
2023/09/11 01:35:36;;;;;;;47.13;38.50;;;;;;;;;;5039745;28;20472;-80
2023/09/11 01:38:02;;;;;;;46.27;38.00;;;;;;;;;;5034093;28;21299;-81
2023/09/11 01:40:30;;;;;;;56.10;42.47;;;;;;;;;;5039218;28;20461;-81
2023/09/11 01:42:57;;;;;;;48.00;38.70;;;;;;;;;;5041210;28;20459;-82
2023/09/11 01:45:25;;;;;;;56.53;41.60;;;;;;;;;;5040977;28;20475;-81
2023/09/11 01:47:53;;;;;;;54.70;40.70;;;;;;;;;;5014310;28;20500;-81
2023/09/11 01:50:21;;;;;;;56.50;42.57;;;;;;;;;;5030595;28;21008;-81
2023/09/11 01:52:48;;;;;;;53.40;41.27;;;;;;;;;;5041268;28;20482;-81
2023/09/11 01:55:15;;;;;;;50.27;40.90;;;;;;;;;;5024471;28;20475;-81
2023/09/11 01:57:42;;;;;;;49.07;42.07;;;;;;;;;;5017945;28;20473;-81
2023/09/11 02:00:09;;;;;;;50.33;42.70;;;;;;;;;;5049585;28;20467;-81
2023/09/11 02:02:35;;;;;;;46.37;39.43;;;;;;;;;;5044527;28;20470;-81
2023/09/11 02:05:04;;;;;;;57.33;40.90;;;;;;;;;;5043367;28;20470;-82
2023/09/11 02:07:30;;;;;;;54.47;43.70;;;;;;;;;;5046403;28;20846;-81
2023/09/11 02:09:56;;;;;;;55.50;45.60;;;;;;;;;;5050433;28;20576;-81
2023/09/11 02:12:23;;;;;;;59.30;47.63;;;;;;;;;;5039050;28;20477;-81
2023/09/11 02:14:49;;;;;;;57.43;45.30;;;;;;;;;;5012415;28;20546;-80
2023/09/11 02:17:16;;;;;;;58.13;45.90;;;;;;;;;;5038263;28;20480;-81
2023/09/11 02:19:43;;;;;;;52.83;42.03;;;;;;;;;;5036299;28;20465;-81
2023/09/11 02:22:10;;;;;;;59.13;45.40;;;;;;;;;;5038761;28;20475;-81
2023/09/11 02:24:38;;;;;;;64.93;49.73;;;;;;;;;;5037513;28;20481;-81
2023/09/11 02:27:04;;;;;;;58.80;47.77;;;;;;;;;;5032105;28;20472;-81
2023/09/11 02:29:31;;;;;;;59.03;45.90;;;;;;;;;;5029488;28;20479;-81
2023/09/11 02:31:57;;;;;;;62.80;49.70;;;;;;;;;;5042488;28;20472;-81
2023/09/11 02:34:25;;;;;;;61.70;47.50;;;;;;;;;;5056907;28;21083;-81
2023/09/11 02:36:51;;;;;;;64.33;48.80;;;;;;;;;;5054401;28;20475;-81
2023/09/11 02:39:19;;;;;;;60.97;49.20;;;;;;;;;;5054259;28;20992;-81
2023/09/11 02:41:46;;;;;;;63.60;48.27;;;;;;;;;;5038293;28;20475;-81
2023/09/11 02:44:13;;;;;;;58.73;45.20;;;;;;;;;;5034139;28;20464;-81
2023/09/11 02:46:40;;;;;;;56.30;46.60;;;;;;;;;;5029096;28;20475;-80
2023/09/11 02:49:08;;;;;;;59.77;46.50;;;;;;;;;;5034859;28;20843;-80
2023/09/11 02:51:34;;;;;;;63.37;47.83;;;;;;;;;;5041780;28;20970;-80
2023/09/11 02:54:00;;;;;;;56.47;44.10;;;;;;;;;;5052423;28;20448;-80
2023/09/11 02:56:28;;;;;;;57.80;44.60;;;;;;;;;;5048123;28;20966;-80
2023/09/11 02:58:55;;;;;;;55.90;46.13;;;;;;;;;;5045247;28;20479;-81
2023/09/11 03:01:21;;;;;;;56.47;45.40;;;;;;;;;;5037375;28;20880;-80
2023/09/11 03:03:48;;;;;;;53.57;43.87;;;;;;;;;;5045406;28;20468;-80
2023/09/11 03:06:14;;;;;;;56.80;45.20;;;;;;;;;;5046204;28;20857;-80
2023/09/11 03:08:40;;;;;;;60.93;48.77;;;;;;;;;;5049351;28;20467;-80
2023/09/11 03:11:08;;;;;;;62.40;47.40;;;;;;;;;;5046068;28;20439;-80
2023/09/11 03:13:37;;;;;;;53.83;44.53;;;;;;;;;;5040798;28;20962;-80
2023/09/11 03:16:07;;;;;;;58.77;47.97;;;;;;;;;;5041870;28;20485;-80
2023/09/11 03:18:34;;;;;;;52.97;44.83;;;;;;;;;;5041499;28;20987;-81
2023/09/11 03:21:00;;;;;;;52.63;43.50;;;;;;;;;;5029654;28;20487;-80
2023/09/11 03:23:27;;;;;;;62.80;48.10;;;;;;;;;;5062493;28;21003;-80
2023/09/11 03:25:53;;;;;;;57.40;45.30;;;;;;;;;;5058711;28;20486;-81
2023/09/11 03:28:20;;;;;;;61.30;46.07;;;;;;;;;;5029503;28;20978;-80
2023/09/11 03:30:47;;;;;;;55.43;43.97;;;;;;;;;;5050824;28;20470;-80
2023/09/11 03:33:14;;;;;;;50.67;41.70;;;;;;;;;;5044209;28;20588;-80
2023/09/11 03:35:40;;;;;;;59.53;45.53;;;;;;;;;;5038003;28;21015;-80
2023/09/11 03:38:07;;;;;;;57.00;44.20;;;;;;;;;;5021748;28;20461;-80
2023/09/11 03:40:33;;;;;;;60.63;46.87;;;;;;;;;;5041168;28;21090;-81
2023/09/11 03:43:00;;;;;;;56.53;46.30;;;;;;;;;;5047727;28;21174;-81
2023/09/11 03:45:26;;;;;;;60.70;47.50;;;;;;;;;;5032035;28;20486;-80
2023/09/11 03:47:54;;;;;;;56.13;47.20;;;;;;;;;;5025839;28;20610;-80
2023/09/11 03:50:21;;;;;;;59.70;44.90;;;;;;;;;;5039294;28;20461;-80
2023/09/11 03:52:47;;;;;;;56.93;45.00;;;;;;;;;;5040936;28;20473;-80
2023/09/11 03:55:14;;;;;;;53.87;44.60;;;;;;;;;;5032178;28;20476;-80
2023/09/11 03:57:40;;;;;;;52.20;43.07;;;;;;;;;;5030334;28;20484;-80
2023/09/11 04:00:07;;;;;;;50.97;44.10;;;;;;;;;;5043686;28;20840;-80
2023/09/11 04:02:34;;;;;;;52.40;41.17;;;;;;;;;;5029446;28;20474;-80
2023/09/11 04:05:04;;;;;;;48.70;40.60;;;;;;;;;;5019991;28;20484;-80
2023/09/11 04:07:32;;;;;;;47.33;38.07;;;;;;;;;;5039223;28;20894;-82
2023/09/11 04:09:58;;;;;;;46.93;39.07;;;;;;;;;;5041456;28;20476;-80
2023/09/11 04:12:25;;;;;;;50.60;39.13;;;;;;;;;;5052119;28;20911;-80
2023/09/11 04:14:51;;;;;;;54.17;41.60;;;;;;;;;;5027062;28;20468;-81
2023/09/11 04:17:19;;;;;;;44.83;37.63;;;;;;;;;;5027995;28;20506;-80
2023/09/11 04:19:45;;;;;;;44.87;36.17;;;;;;;;;;5045033;28;20843;-80
2023/09/11 04:22:13;;;;;;;42.37;35.50;;;;;;;;;;5052663;28;20473;-80
2023/09/11 04:24:40;;;;;;;48.73;39.10;;;;;;;;;;5027103;28;20471;-80
2023/09/11 04:27:06;;;;;;;44.53;38.20;;;;;;;;;;5032502;28;20466;-80
2023/09/11 04:29:32;;;;;;;45.30;35.03;;;;;;;;;;5054128;28;20527;-80
2023/09/11 04:31:59;;;;;;;46.70;36.77;;;;;;;;;;5057001;28;20476;-80
2023/09/11 04:34:25;;;;;;;45.00;35.47;;;;;;;;;;5044669;28;20466;-81
2023/09/11 04:36:52;;;;;;;44.30;36.37;;;;;;;;;;5042938;28;20484;-80
2023/09/11 04:39:22;;;;;;;46.80;37.50;;;;;;;;;;5031380;28;20444;-81
2023/09/11 04:41:49;;;;;;;42.90;35.87;;;;;;;;;;5047554;28;20466;-80
2023/09/11 04:44:15;;;;;;;43.73;36.97;;;;;;;;;;5047691;28;20460;-80
2023/09/11 04:46:42;;;;;;;47.10;37.77;;;;;;;;;;5041654;28;20494;-80
2023/09/11 04:49:08;;;;;;;46.07;37.30;;;;;;;;;;5040247;28;20461;-80
2023/09/11 04:51:35;;;;;;;43.03;35.50;;;;;;;;;;5045871;28;20479;-80
2023/09/11 04:54:01;;;;;;;43.20;34.17;;;;;;;;;;5063018;28;21000;-80
2023/09/11 04:56:29;;;;;;;44.33;35.87;;;;;;;;;;5058294;28;21001;-80
2023/09/11 04:58:55;;;;;;;45.17;35.30;;;;;;;;;;5054568;28;20941;-80
2023/09/11 05:01:22;;;;;;;38.63;34.23;;;;;;;;;;5056111;28;20464;-80
2023/09/11 05:03:49;;;;;;;43.70;37.00;;;;;;;;;;5048388;28;20476;-81
2023/09/11 05:06:15;;;;;;;40.90;34.10;;;;;;;;;;5044249;28;20494;-80
2023/09/11 05:08:42;;;;;;;49.00;35.77;;;;;;;;;;5039544;28;20496;-80
2023/09/11 05:11:08;;;;;;;39.00;31.80;;;;;;;;;;5030124;28;20474;-80
2023/09/11 05:13:36;;;;;;;43.13;34.60;;;;;;;;;;5052710;28;20565;-80
2023/09/11 05:16:03;;;;;;;39.87;33.00;;;;;;;;;;5056897;28;20837;-80
2023/09/11 05:18:29;;;;;;;42.03;35.07;;;;;;;;;;5038999;28;20480;-81
2023/09/11 05:20:55;;;;;;;40.57;35.37;;;;;;;;;;5059867;28;20482;-80
2023/09/11 05:23:24;;;;;;;43.60;36.20;;;;;;;;;;5045670;28;20471;-80
2023/09/11 05:25:50;;;;;;;42.67;35.37;;;;;;;;;;5029025;28;20485;-80
2023/09/11 05:28:16;;;;;;;42.73;34.87;;;;;;;;;;5049104;28;20490;-80
2023/09/11 05:30:44;;;;;;;38.63;31.27;;;;;;;;;;5051732;28;20467;-80
2023/09/11 05:33:11;;;;;;;44.63;36.10;;;;;;;;;;5053496;28;20463;-80
2023/09/11 05:35:38;;;;;;;40.87;34.40;;;;;;;;;;5036846;28;20470;-80
2023/09/11 05:38:05;;;;;;;42.60;35.73;;;;;;;;;;5026584;28;20534;-80
2023/09/11 05:40:31;;;;;;;43.00;36.17;;;;;;;;;;5050714;28;20464;-80
2023/09/11 05:42:58;;;;;;;41.10;35.17;;;;;;;;;;5047737;28;20856;-80
2023/09/11 05:45:24;;;;;;;41.70;34.77;;;;;;;;;;5050071;28;20472;-80
2023/09/11 05:47:52;;;;;;;41.27;35.00;;;;;;;;;;5059386;28;20479;-82
2023/09/11 05:50:20;;;;;;;43.83;36.27;;;;;;;;;;5047087;28;20475;-81
2023/09/11 05:52:47;;;;;;;44.97;33.90;;;;;;;;;;5047185;28;20476;-80
2023/09/11 05:55:13;;;;;;;42.00;34.33;;;;;;;;;;5029557;28;20471;-81
2023/09/11 05:57:39;;;;;;;44.07;37.10;;;;;;;;;;5036251;28;20499;-80
2023/09/11 06:00:12;;;;;;;47.03;37.53;;;;;;;;;;5044716;28;20475;-80
2023/09/11 06:02:38;;;;;;;54.90;40.37;;;;;;;;;;5038487;28;20502;-81
2023/09/11 06:05:07;;;;;;;47.87;39.00;;;;;;;;;;5036549;28;20508;-80
2023/09/11 06:07:33;;;;;;;47.23;39.63;;;;;;;;;;5040946;28;20467;-80
2023/09/11 06:09:59;;;;;;;46.57;38.70;;;;;;;;;;5047488;28;20583;-80
2023/09/11 06:12:29;;;;;;;48.07;39.03;;;;;;;;;;5045728;28;20453;-80
2023/09/11 06:14:56;;;;;;;49.17;39.83;;;;;;;;;;5027655;28;20456;-81
2023/09/11 06:17:22;;;;;;;42.20;35.47;;;;;;;;;;5041932;28;20499;-80
2023/09/11 06:19:49;;;;;;;46.93;37.73;;;;;;;;;;5043338;28;20469;-80
2023/09/11 06:22:18;;;;;;;43.47;38.50;;;;;;;;;;5054805;28;20474;-80
2023/09/11 06:24:44;;;;;;;50.40;40.47;;;;;;;;;;5027460;28;20470;-80
2023/09/11 06:27:13;;;;;;;51.87;42.97;;;;;;;;;;5040220;28;20494;-80
2023/09/11 06:29:39;;;;;;;52.97;41.47;;;;;;;;;;5041848;28;20471;-80
2023/09/11 06:32:06;;;;;;;51.77;41.80;;;;;;;;;;5038621;28;20484;-80
2023/09/11 06:34:32;;;;;;;52.93;41.83;;;;;;;;;;5040362;28;20467;-80
2023/09/11 06:36:59;;;;;;;54.00;41.80;;;;;;;;;;5042194;28;20578;-80
2023/09/11 06:39:28;;;;;;;54.20;44.70;;;;;;;;;;5048650;28;20468;-80
2023/09/11 06:41:54;;;;;;;51.70;41.70;;;;;;;;;;5043525;28;20478;-81
2023/09/11 06:44:22;;;;;;;47.10;41.10;;;;;;;;;;5040112;28;20464;-80
2023/09/11 06:46:49;;;;;;;49.27;39.40;;;;;;;;;;5031276;28;21187;-81
2023/09/11 06:49:15;;;;;;;54.53;40.67;;;;;;;;;;5037870;28;20458;-80
2023/09/11 06:51:42;;;;;;;47.13;38.93;;;;;;;;;;5042039;28;20476;-81
2023/09/11 06:54:09;;;;;;;43.80;35.07;;;;;;;;;;5043870;28;20978;-81
2023/09/11 06:56:37;;;;;;;40.80;34.57;;;;;;;;;;5049053;28;20479;-80
2023/09/11 06:59:03;;;;;;;36.37;32.43;;;;;;;;;;5043938;28;20472;-81
2023/09/11 07:01:30;;;;;;;36.47;31.40;;;;;;;;;;5050228;28;20540;-80
2023/09/11 07:03:58;;;;;;;32.13;27.33;;;;;;;;;;5017872;28;20477;-79
2023/09/11 07:06:24;;;;;;;37.77;28.60;;;;;;;;;;5049735;28;20866;-80
2023/09/11 07:08:50;;;;;;;36.57;27.03;;;;;;;;;;5051681;28;20478;-80
2023/09/11 07:11:17;;;;;;;35.30;27.67;;;;;;;;;;5036750;28;20998;-80
2023/09/11 07:13:45;;;;;;;29.43;25.17;;;;;;;;;;5047723;28;20856;-81
2023/09/11 07:16:12;;;;;;;30.13;25.60;;;;;;;;;;5045193;28;20464;-80
2023/09/11 07:18:38;;;;;;;27.37;24.50;;;;;;;;;;5053901;28;20995;-81
2023/09/11 07:21:05;;;;;;;31.03;23.97;;;;;;;;;;5022389;28;20460;-80
2023/09/11 07:23:31;;;;;;;26.20;23.40;;;;;;;;;;5032197;28;20467;-81
2023/09/11 07:25:58;;;;;;;30.60;24.00;;;;;;;;;;5046106;28;20477;-80
2023/09/11 07:28:26;;;;;;;26.27;23.20;;;;;;;;;;5044863;28;20479;-80
2023/09/11 07:30:54;;;;;;;28.80;24.00;;;;;;;;;;5044140;28;20465;-80
2023/09/11 07:33:21;;;;;;;25.43;22.47;;;;;;;;;;5034770;28;20486;-80
2023/09/11 07:35:48;;;;;;;24.73;22.17;;;;;;;;;;5056616;28;20462;-80
2023/09/11 07:38:15;;;;;;;23.27;20.90;;;;;;;;;;5044372;28;20466;-80
2023/09/11 07:40:41;;;;;;;24.20;20.13;;;;;;;;;;5049219;28;20455;-80
2023/09/11 07:43:08;;;;;;;25.33;20.97;;;;;;;;;;5051830;28;20465;-80
2023/09/11 07:45:34;;;;;;;21.90;19.73;;;;;;;;;;5044928;28;20460;-80
2023/09/11 07:48:02;;;;;;;22.20;18.27;;;;;;;;;;5044612;28;20491;-80
2023/09/11 07:50:29;;;;;;;24.33;20.13;;;;;;;;;;5041592;28;20455;-81
2023/09/11 07:52:56;;;;;;;20.80;18.70;;;;;;;;;;5056181;28;20472;-80
2023/09/11 07:55:23;;;;;;;20.40;18.33;;;;;;;;;;5049834;28;20461;-80
2023/09/11 07:57:49;;;;;;;22.80;17.50;;;;;;;;;;5053310;28;20467;-80
2023/09/11 08:00:17;;;;;;;19.00;17.00;;;;;;;;;;5043094;28;20475;-82
2023/09/11 08:02:43;;;;;;;19.90;15.93;;;;;;;;;;5043492;28;20893;-81
2023/09/11 08:05:11;;;;;;;22.33;16.63;;;;;;;;;;5043112;28;20471;-80
2023/09/11 08:07:37;;;;;;;24.90;17.00;;;;;;;;;;5051951;28;20528;-80
2023/09/11 08:10:05;;;;;;;23.10;16.73;;;;;;;;;;5053607;28;20538;-81
2023/09/11 08:12:33;;;;;;;17.30;15.60;;;;;;;;;;5050227;28;20487;-81
2023/09/11 08:15:00;;;;;;;19.93;16.70;;;;;;;;;;5048041;28;20467;-80
2023/09/11 08:17:27;;;;;;;21.40;16.90;;;;;;;;;;5041619;28;20510;-80
2023/09/11 08:19:54;;;;;;;19.10;17.00;;;;;;;;;;5040427;28;20471;-80
2023/09/11 08:22:22;;;;;;;28.17;18.57;;;;;;;;;;5048441;28;20456;-80
2023/09/11 08:24:48;;;;;;;23.30;18.63;;;;;;;;;;5040152;28;20468;-81
2023/09/11 08:27:15;;;;;;;23.63;17.43;;;;;;;;;;5043618;28;20481;-80
2023/09/11 08:29:42;;;;;;;22.67;19.90;;;;;;;;;;5053770;28;20995;-80
2023/09/11 08:32:08;;;;;;;22.50;17.13;;;;;;;;;;5032276;28;20566;-80
2023/09/11 08:34:35;;;;;;;25.33;16.23;;;;;;;;;;5036168;28;20531;-80
2023/09/11 08:37:01;;;;;;;19.67;17.33;;;;;;;;;;5031073;28;20463;-80
2023/09/11 08:39:29;;;;;;;25.23;17.17;;;;;;;;;;5049616;28;20467;-81
2023/09/11 08:41:58;;;;;;;22.93;16.70;;;;;;;;;;5051448;28;20456;-81
2023/09/11 08:44:24;;;;;;;19.10;16.33;;;;;;;;;;5039035;28;20855;-80
2023/09/11 08:46:52;;;;;;;22.10;16.70;;;;;;;;;;5052237;28;20490;-81
2023/09/11 08:49:21;;;;;;;25.30;15.87;;;;;;;;;;5035999;28;20993;-80
2023/09/11 08:51:48;;;;;;;23.87;18.40;;;;;;;;;;5036196;28;20463;-81
2023/09/11 08:54:17;;;;;;;21.00;17.00;;;;;;;;;;5052546;28;20510;-81
2023/09/11 08:56:44;;;;;;;26.70;17.90;;;;;;;;;;5054699;28;20547;-81
2023/09/11 08:59:12;;;;;;;21.40;17.10;;;;;;;;;;5041029;28;20466;-80
2023/09/11 09:01:39;;;;;;;23.77;17.53;;;;;;;;;;5046747;28;20480;-80
2023/09/11 09:04:06;;;;;;;17.20;15.50;;;;;;;;;;5047959;28;20470;-80
2023/09/11 09:06:34;;;;;;;20.23;16.77;;;;;;;;;;5047922;28;20516;-81
2023/09/11 09:09:00;;;;;;;19.33;15.20;;;;;;;;;;5010787;28;21047;-80
2023/09/11 09:11:27;;;;;;;19.20;17.10;;;;;;;;;;5060213;28;20466;-81
2023/09/11 09:13:55;;;;;;;22.90;17.13;;;;;;;;;;5036448;28;20496;-81
2023/09/11 09:16:21;;;;;;;20.03;15.73;;;;;;;;;;5041761;28;20472;-81
2023/09/11 09:18:49;;;;;;;25.33;15.93;;;;;;;;;;5035641;28;20479;-81
2023/09/11 09:21:16;;;;;;;18.83;15.90;;;;;;;;;;5030054;28;20471;-81
2023/09/11 09:23:43;;;;;;;20.03;16.60;;;;;;;;;;5046999;28;20494;-81
2023/09/11 09:26:10;;;;;;;16.33;14.63;;;;;;;;;;5036250;28;20483;-81
2023/09/11 09:28:43;;;;;;;21.37;15.70;;;;;;;;;;5046305;28;20475;-81
2023/09/11 09:31:12;;;;;;;19.13;15.50;;;;;;;;;;5035182;28;20467;-80
2023/09/11 09:33:39;;;;;;;18.73;16.80;;;;;;;;;;5044776;28;20552;-80
2023/09/11 09:36:07;;;;;;;19.90;16.27;;;;;;;;;;5045459;28;21020;-80
2023/09/11 09:38:34;;;;;;;19.43;15.60;;;;;;;;;;5012606;28;20467;-81
2023/09/11 09:41:08;;;;;;;20.47;15.80;;;;;;;;;;5036909;28;20471;-80
2023/09/11 09:43:34;;;;;;;17.90;15.60;;;;;;;;;;5036552;28;20473;-80
2023/09/11 09:46:17;;;;;;;16.20;14.33;;;;;;;;;;5046855;28;20479;-81
2023/09/11 09:48:45;;;;;;;21.60;15.20;;;;;;;;;;5037544;28;20977;-81
2023/09/11 09:51:11;;;;;;;23.27;16.30;;;;;;;;;;5049492;28;20929;-80
2023/09/11 09:53:41;;;;;;;19.53;16.13;;;;;;;;;;5046647;28;21004;-80
2023/09/11 09:56:08;;;;;;;16.27;14.57;;;;;;;;;;5022108;28;20554;-81
2023/09/11 09:58:35;;;;;;;26.90;14.90;;;;;;;;;;5028592;28;20504;-81
2023/09/11 10:01:02;;;;;;;19.30;14.10;;;;;;;;;;5042495;28;20467;-81
2023/09/11 10:03:31;;;;;;;19.70;15.10;;;;;;;;;;5050345;28;20482;-81
2023/09/11 10:05:59;;;;;;;18.13;15.90;;;;;;;;;;5041149;28;20468;-81
2023/09/11 10:08:27;;;;;;;28.20;16.13;;;;;;;;;;5040486;28;20491;-80
2023/09/11 10:10:54;;;;;;;20.17;14.10;;;;;;;;;;5050348;28;20469;-80
2023/09/11 10:13:21;;;;;;;17.80;14.60;;;;;;;;;;5047480;28;20835;-81
2023/09/11 10:15:48;;;;;;;24.57;14.43;;;;;;;;;;5036082;28;20477;-81
2023/09/11 10:18:14;;;;;;;23.67;15.70;;;;;;;;;;5026799;28;20982;-80
2023/09/11 10:20:41;;;;;;;23.70;15.17;;;;;;;;;;5050775;28;20464;-80
2023/09/11 10:23:08;;;;;;;22.50;14.70;;;;;;;;;;5043802;28;20477;-80
2023/09/11 10:25:38;;;;;;;19.47;15.77;;;;;;;;;;5022572;28;21191;-81
2023/09/11 10:28:05;;;;;;;25.40;14.00;;;;;;;;;;5018863;28;20500;-80
2023/09/11 10:30:34;;;;;;;17.83;13.23;;;;;;;;;;5036313;28;20476;-80
2023/09/11 10:33:01;;;;;;;15.63;13.97;;;;;;;;;;5031723;28;20475;-80
2023/09/11 10:35:32;;;;;;;14.67;12.57;;;;;;;;;;5049939;28;20842;-80
2023/09/11 10:37:59;;;;;;;21.90;14.30;;;;;;;;;;5048096;28;20482;-81
2023/09/11 10:40:28;;;;;;;18.43;15.43;;;;;;;;;;5030432;28;20478;-81
2023/09/11 10:42:56;;;;;;;20.30;13.60;;;;;;;;;;5021538;28;20474;-81
2023/09/11 10:45:26;;;;;;;22.30;15.17;;;;;;;;;;5041470;28;20885;-81
2023/09/11 10:47:52;;;;;;;23.23;14.17;;;;;;;;;;5021984;28;20489;-80
2023/09/11 10:50:19;;;;;;;17.30;13.63;;;;;;;;;;5019299;28;20467;-81
2023/09/11 10:52:45;;;;;;;19.07;12.83;;;;;;;;;;5042398;28;20483;-80
2023/09/11 10:55:12;;;;;;;24.10;14.13;;;;;;;;;;5039953;28;21017;-81
2023/09/11 10:57:38;;;;;;;20.17;12.90;;;;;;;;;;5040693;28;20482;-81
2023/09/11 11:00:09;;;;;;;21.03;14.10;;;;;;;;;;5030655;28;20467;-81
2023/09/11 11:02:36;;;;;;;16.60;13.00;;;;;;;;;;5041802;28;20491;-81
2023/09/11 11:05:03;;;;;;;20.10;14.10;;;;;;;;;;5035364;28;20926;-81
2023/09/11 11:07:30;;;;;;;18.10;12.63;;;;;;;;;;5041282;28;20560;-81
2023/09/11 11:09:56;;;;;;;20.43;12.33;;;;;;;;;;5040082;28;20463;-80
2023/09/11 11:12:31;;;;;;;23.77;13.67;;;;;;;;;;5034649;28;20485;-80
2023/09/11 11:15:12;;;;;;;21.07;13.87;;;;;;;;;;5030674;28;20476;-81
2023/09/11 11:17:40;;;;;;;15.77;13.57;;;;;;;;;;5045997;28;20464;-81
2023/09/11 11:20:07;;;;;;;21.13;13.63;;;;;;;;;;5025884;28;20557;-81
2023/09/11 11:22:34;;;;;;;14.57;13.17;;;;;;;;;;5035274;28;20472;-81
2023/09/11 11:25:03;;;;;;;21.23;13.17;;;;;;;;;;5051951;28;20473;-81
2023/09/11 11:27:29;;;;;;;20.07;11.80;;;;;;;;;;5034833;28;20499;-81
2023/09/11 11:29:56;;;;;;;19.43;12.10;;;;;;;;;;5038732;28;20467;-81
2023/09/11 11:32:23;;;;;;;21.23;12.87;;;;;;;;;;5054606;28;20837;-80
2023/09/11 11:34:51;;;;;;;20.37;12.00;;;;;;;;;;5060425;28;20451;-81
2023/09/11 11:37:21;;;;;;;16.57;11.53;;;;;;;;;;5049212;28;20468;-81
2023/09/11 11:39:47;;;;;;;20.13;12.50;;;;;;;;;;5039275;28;20467;-81
2023/09/11 11:42:15;;;;;;;15.83;11.40;;;;;;;;;;5048563;28;20534;-81
2023/09/11 11:44:42;;;;;;;22.40;11.87;;;;;;;;;;5046834;28;20478;-81
2023/09/11 11:47:08;;;;;;;14.80;11.53;;;;;;;;;;5051393;28;20475;-81
2023/09/11 11:49:35;;;;;;;14.53;10.90;;;;;;;;;;5061195;28;20474;-81
2023/09/11 11:52:03;;;;;;;23.20;12.10;;;;;;;;;;5040504;28;20474;-81
2023/09/11 11:54:30;;;;;;;18.53;11.00;;;;;;;;;;5047839;28;20469;-81
2023/09/11 11:56:57;;;;;;;17.30;10.73;;;;;;;;;;5040588;28;20479;-81
2023/09/11 11:59:23;;;;;;;17.30;11.10;;;;;;;;;;5045078;28;20480;-81
2023/09/11 12:01:50;;;;;;;15.87;10.80;;;;;;;;;;5043465;28;20464;-80
2023/09/11 12:04:16;;;;;;;14.50;11.30;;;;;;;;;;5039987;28;20469;-81
2023/09/11 12:06:43;;;;;;;17.30;10.30;;;;;;;;;;5046372;28;20526;-81
2023/09/11 12:09:11;;;;;;;24.57;11.50;;;;;;;;;;5045525;28;21181;-81
2023/09/11 12:11:40;;;;;;;15.67;10.40;;;;;;;;;;5040543;28;20480;-81
2023/09/11 12:14:12;;;;;;;16.77;10.40;;;;;;;;;;5039575;28;20467;-81
2023/09/11 12:16:39;;;;;;;14.40;9.80;;;;;;;;;;5048151;28;20539;-81
2023/09/11 12:19:05;;;;;;;20.17;10.57;;;;;;;;;;5039705;28;20661;-80
2023/09/11 12:21:32;;;;;;;23.60;10.77;;;;;;;;;;5038980;28;21017;-81
2023/09/11 12:23:59;;;;;;;15.77;10.27;;;;;;;;;;5055628;28;20471;-81
2023/09/11 12:26:27;;;;;;;16.10;10.77;;;;;;;;;;5046498;28;20472;-81
2023/09/11 12:28:53;;;;;;;19.60;11.10;;;;;;;;;;5043567;28;20501;-81
2023/09/11 12:31:20;;;;;;;20.57;10.83;;;;;;;;;;5041230;28;20467;-81
2023/09/11 12:33:52;;;;;;;16.43;10.50;;;;;;;;;;5050355;28;20467;-81
2023/09/11 12:36:20;;;;;;;16.30;11.17;;;;;;;;;;5040447;28;20488;-81
2023/09/11 12:38:46;;;;;;;15.33;10.17;;;;;;;;;;5042763;28;20483;-81
2023/09/11 12:41:13;;;;;;;19.20;10.70;;;;;;;;;;5013576;28;20487;-81
2023/09/11 12:43:46;;;;;;;18.50;9.83;;;;;;;;;;5042567;28;21165;-81
2023/09/11 12:46:14;;;;;;;13.00;9.93;;;;;;;;;;5013720;28;20472;-81
2023/09/11 12:48:43;;;;;;;20.47;10.63;;;;;;;;;;5042683;28;20541;-81
2023/09/11 12:51:10;;;;;;;17.70;11.67;;;;;;;;;;5036664;28;20471;-81
2023/09/11 12:53:37;;;;;;;20.50;11.53;;;;;;;;;;5040393;28;20475;-82
2023/09/11 12:56:03;;;;;;;16.20;10.30;;;;;;;;;;5045800;28;20474;-81
2023/09/11 12:58:29;;;;;;;19.93;10.80;;;;;;;;;;5045863;28;20487;-81
2023/09/11 13:00:57;;;;;;;21.17;11.63;;;;;;;;;;5041474;28;20467;-81
2023/09/11 13:03:24;;;;;;;18.63;11.57;;;;;;;;;;5056509;28;20480;-81
2023/09/11 13:05:50;;;;;;;22.23;10.73;;;;;;;;;;5049702;28;20464;-81
2023/09/11 13:08:17;;;;;;;16.23;11.43;;;;;;;;;;5023318;28;21004;-81
2023/09/11 13:10:43;;;;;;;18.10;11.40;;;;;;;;;;5037981;28;20568;-80
2023/09/11 13:13:10;;;;;;;15.80;11.60;;;;;;;;;;5042147;28;20499;-81
2023/09/11 13:15:36;;;;;;;15.00;11.57;;;;;;;;;;5044150;28;20465;-81
2023/09/11 13:18:04;;;;;;;16.60;11.07;;;;;;;;;;5051597;28;20465;-81
2023/09/11 13:20:31;;;;;;;20.90;11.67;;;;;;;;;;5034546;28;20474;-81
2023/09/11 13:22:57;;;;;;;12.10;10.90;;;;;;;;;;5039733;28;21036;-81
2023/09/11 13:25:24;;;;;;;18.40;11.00;;;;;;;;;;5041220;28;20468;-81
2023/09/11 13:27:50;;;;;;;22.10;11.40;;;;;;;;;;5046778;28;20524;-81
2023/09/11 13:30:16;;;;;;;17.87;10.63;;;;;;;;;;5029430;28;20478;-81
2023/09/11 13:32:43;;;;;;;26.00;12.20;;;;;;;;;;5048501;28;20465;-81
2023/09/11 13:35:11;;;;;;;16.93;11.80;;;;;;;;;;5053124;28;20478;-82
2023/09/11 13:37:37;;;;;;;16.50;11.60;;;;;;;;;;5046701;28;20460;-81
2023/09/11 13:40:06;;;;;;;18.10;11.83;;;;;;;;;;5053668;28;20906;-81
2023/09/11 13:42:32;;;;;;;12.13;10.90;;;;;;;;;;5029543;28;20483;-81
2023/09/11 13:44:58;;;;;;;24.70;11.93;;;;;;;;;;5036617;28;20464;-81
2023/09/11 13:47:25;;;;;;;17.27;11.50;;;;;;;;;;5048591;28;20499;-81
2023/09/11 13:49:52;;;;;;;17.17;11.30;;;;;;;;;;5038001;28;20475;-81
2023/09/11 13:52:19;;;;;;;14.80;11.67;;;;;;;;;;5049158;28;20957;-81
2023/09/11 13:54:46;;;;;;;15.60;11.00;;;;;;;;;;5051957;28;20470;-81
2023/09/11 13:57:12;;;;;;;13.27;11.83;;;;;;;;;;5007555;28;20582;-81
2023/09/11 13:59:39;;;;;;;14.03;12.13;;;;;;;;;;5053423;28;20472;-81
2023/09/11 14:02:05;;;;;;;18.50;11.90;;;;;;;;;;5049215;28;20993;-81
2023/09/11 14:04:31;;;;;;;14.60;13.03;;;;;;;;;;5047875;28;20465;-81
2023/09/11 14:06:58;;;;;;;18.93;12.23;;;;;;;;;;5036805;28;20475;-80
2023/09/11 14:09:25;;;;;;;17.20;11.80;;;;;;;;;;5044493;28;20464;-81
2023/09/11 14:11:53;;;;;;;17.07;13.00;;;;;;;;;;5036523;28;20476;-81
2023/09/11 14:14:20;;;;;;;14.93;12.50;;;;;;;;;;5045516;28;20467;-81
2023/09/11 14:16:46;;;;;;;16.63;12.63;;;;;;;;;;5031057;28;20482;-81